createdAt,value
2023-04-29T00:01:37.858Z,1.92
2023-04-29T00:04:06.364Z,3.22
2023-04-29T00:06:34.713Z,2.17
2023-04-29T00:09:02.912Z,3.05
2023-04-29T00:11:31.123Z,2.28
2023-04-29T00:13:59.316Z,2.00
2023-04-29T00:16:27.601Z,3.47
2023-04-29T00:18:56.325Z,2.58
2023-04-29T00:21:25.452Z,4.65
2023-04-29T00:23:53.697Z,2.97
2023-04-29T00:26:21.940Z,3.90
2023-04-29T00:28:50.176Z,2.97
2023-04-29T00:31:18.425Z,3.42
2023-04-29T00:33:47.284Z,4.55
2023-04-29T00:36:15.956Z,3.88
2023-04-29T00:38:44.397Z,1.75
2023-04-29T00:41:12.778Z,3.00
2023-04-29T00:43:41.010Z,3.50
2023-04-29T00:46:09.932Z,2.85
2023-04-29T00:48:38.291Z,3.20
2023-04-29T00:51:07.694Z,3.25
2023-04-29T00:53:36.203Z,3.08
2023-04-29T00:56:04.947Z,2.75
2023-04-29T00:58:36.150Z,2.40
2023-04-29T01:01:07.437Z,3.75
2023-04-29T01:03:38.633Z,2.53
2023-04-29T01:06:45.354Z,1.48
2023-04-29T01:09:42.290Z,2.60
2023-04-29T01:12:33.213Z,3.00
2023-04-29T01:15:11.816Z,2.17
2023-04-29T01:17:45.813Z,2.97
2023-04-29T01:20:15.914Z,1.60
2023-04-29T01:22:44.302Z,2.97
2023-04-29T01:25:12.516Z,2.58
2023-04-29T01:28:08.593Z,2.90
2023-04-29T01:30:43.935Z,9.43
2023-04-29T01:33:22.342Z,2.63
2023-04-29T01:36:02.231Z,3.45
2023-04-29T01:38:54.369Z,2.17
2023-04-29T01:41:40.769Z,4.95
2023-04-29T01:44:14.530Z,2.83
2023-04-29T01:46:44.409Z,2.83
2023-04-29T01:49:14.200Z,2.20
2023-04-29T01:51:42.486Z,3.40
2023-04-29T01:54:11.308Z,3.72
2023-04-29T01:56:39.542Z,2.97
2023-04-29T01:59:09.044Z,4.22
2023-04-29T02:01:37.424Z,2.85
2023-04-29T02:04:06.086Z,2.42
2023-04-29T02:06:34.481Z,1.98
2023-04-29T02:09:02.717Z,3.92
2023-04-29T02:11:31.134Z,3.50
2023-04-29T02:13:59.560Z,2.78
2023-04-29T02:16:27.843Z,1.70
2023-04-29T02:18:56.199Z,3.97
2023-04-29T02:21:24.861Z,2.45
2023-04-29T02:23:55.269Z,3.92
2023-04-29T02:26:24.605Z,3.13
2023-04-29T02:28:53.422Z,2.30
2023-04-29T02:31:21.704Z,5.05
2023-04-29T02:33:50.079Z,1.75
2023-04-29T02:36:19.150Z,4.97
2023-04-29T02:38:47.801Z,2.70
2023-04-29T02:41:19.607Z,3.45
2023-04-29T02:43:49.943Z,3.00
2023-04-29T02:46:19.670Z,2.78
2023-04-29T02:48:47.920Z,2.35
2023-04-29T02:51:16.183Z,2.28
2023-04-29T02:53:45.425Z,1.98
2023-04-29T02:56:13.677Z,2.80
2023-04-29T02:58:43.117Z,1.48
2023-04-29T03:01:11.740Z,1.63
2023-04-29T03:03:40.119Z,1.55
2023-04-29T03:06:08.555Z,2.10
2023-04-29T03:08:36.784Z,3.22
2023-04-29T03:11:05.329Z,2.50
2023-04-29T03:13:33.584Z,3.58
2023-04-29T03:16:02.045Z,5.70
2023-04-29T03:18:30.254Z,10.25
2023-04-29T03:20:58.533Z,8.65
2023-04-29T03:23:27.586Z,31.95
2023-04-29T03:25:56.480Z,4.35
2023-04-29T03:28:24.907Z,2.58
2023-04-29T03:30:53.169Z,2.55
2023-04-29T03:33:21.409Z,2.38
2023-04-29T03:35:49.668Z,2.83
2023-04-29T03:38:17.909Z,3.38
2023-04-29T03:40:46.480Z,3.60
2023-04-29T03:43:15.396Z,2.05
2023-04-29T03:45:43.578Z,2.92
2023-04-29T03:48:13.326Z,3.22
2023-04-29T03:50:41.633Z,2.72
2023-04-29T03:53:09.966Z,2.85
2023-04-29T03:55:38.195Z,2.00
2023-04-29T03:58:06.485Z,2.58
2023-04-29T04:00:34.804Z,3.00
2023-04-29T04:03:05.242Z,2.35
2023-04-29T04:05:34.107Z,1.77
2023-04-29T04:08:02.767Z,2.17
2023-04-29T04:10:31.092Z,2.03
2023-04-29T04:12:59.332Z,3.72
2023-04-29T04:15:27.602Z,2.10
2023-04-29T04:17:55.852Z,2.95
2023-04-29T04:20:24.114Z,2.45
2023-04-29T04:22:52.452Z,2.67
2023-04-29T04:25:20.613Z,3.78
2023-04-29T04:27:48.878Z,2.80
2023-04-29T04:30:17.361Z,1.67
2023-04-29T04:32:46.074Z,1.50
2023-04-29T04:35:14.365Z,3.13
2023-04-29T04:37:42.611Z,1.88
2023-04-29T04:40:12.241Z,3.95
2023-04-29T04:42:40.705Z,2.30
2023-04-29T04:45:10.519Z,2.75
2023-04-29T04:47:39.089Z,1.52
2023-04-29T04:50:08.215Z,2.13
2023-04-29T04:52:36.802Z,3.63
2023-04-29T04:55:05.276Z,1.23
2023-04-29T04:57:33.583Z,2.53
2023-04-29T05:00:02.551Z,2.40
2023-04-29T05:02:30.842Z,1.88
2023-04-29T05:04:59.349Z,3.42
2023-04-29T05:07:27.569Z,4.30
2023-04-29T05:09:55.811Z,1.85
2023-04-29T05:12:26.224Z,2.65
2023-04-29T05:14:54.921Z,1.60
2023-04-29T05:17:23.418Z,1.98
2023-04-29T05:19:52.168Z,1.50
2023-04-29T05:22:20.613Z,2.30
2023-04-29T05:24:53.682Z,4.18
2023-04-29T05:27:22.115Z,1.60
2023-04-29T05:29:50.485Z,1.80
2023-04-29T05:32:18.831Z,2.30
2023-04-29T05:34:47.474Z,1.67
2023-04-29T05:37:15.879Z,2.13
2023-04-29T05:39:44.160Z,1.65
2023-04-29T05:42:12.434Z,1.92
2023-04-29T05:44:40.906Z,2.33
2023-04-29T05:47:09.193Z,2.35
2023-04-29T05:49:37.381Z,3.00
2023-04-29T05:52:07.370Z,2.08
2023-04-29T05:54:36.163Z,2.42
2023-04-29T05:57:04.596Z,1.77
2023-04-29T05:59:33.865Z,2.78
2023-04-29T06:02:02.406Z,2.65
2023-04-29T06:04:30.895Z,2.60
2023-04-29T06:06:59.543Z,4.60
2023-04-29T06:09:28.487Z,1.70
2023-04-29T06:11:57.185Z,3.45
2023-04-29T06:14:25.445Z,2.42
2023-04-29T06:16:54.597Z,2.58
2023-04-29T06:19:23.012Z,2.78
2023-04-29T06:21:51.374Z,2.75
2023-04-29T06:24:19.684Z,3.10
2023-04-29T06:26:48.421Z,2.10
2023-04-29T06:29:17.049Z,2.10
2023-04-29T06:31:45.500Z,4.20
2023-04-29T06:34:14.044Z,1.58
2023-04-29T06:36:42.464Z,3.45
2023-04-29T06:39:10.629Z,3.80
2023-04-29T06:41:38.904Z,3.05
2023-04-29T06:44:07.089Z,3.17
2023-04-29T06:46:35.262Z,2.88
2023-04-29T06:49:03.487Z,3.13
2023-04-29T06:51:33.007Z,3.05
2023-04-29T06:54:01.409Z,3.13
2023-04-29T06:56:29.591Z,3.40
2023-04-29T06:58:57.756Z,2.88
2023-04-29T07:01:25.968Z,2.63
2023-04-29T07:03:54.363Z,3.60
2023-04-29T07:06:22.780Z,4.07
2023-04-29T07:08:51.109Z,2.85
2023-04-29T07:11:19.975Z,3.00
2023-04-29T07:13:48.586Z,2.22
2023-04-29T07:16:22.872Z,2.50
2023-04-29T07:18:51.164Z,2.45
2023-04-29T07:21:19.357Z,3.28
2023-04-29T07:23:47.738Z,3.53
2023-04-29T07:26:17.817Z,3.72
2023-04-29T07:28:47.098Z,3.55
2023-04-29T07:31:15.374Z,3.38
2023-04-29T07:33:46.395Z,3.95
2023-04-29T07:36:14.727Z,2.85
2023-04-29T07:38:42.947Z,4.43
2023-04-29T07:41:11.209Z,3.28
2023-04-29T07:43:41.569Z,3.15
2023-04-29T07:46:10.568Z,6.13
2023-04-29T07:48:41.711Z,4.38
2023-04-29T07:51:15.333Z,5.53
2023-04-29T07:53:44.244Z,4.67
2023-04-29T07:56:12.532Z,4.22
2023-04-29T07:58:40.746Z,4.20
2023-04-29T08:01:12.813Z,4.57
2023-04-29T08:03:41.981Z,3.60
2023-04-29T08:06:10.607Z,2.78
2023-04-29T08:08:38.964Z,2.47
2023-04-29T08:11:07.507Z,3.42
2023-04-29T08:13:35.700Z,4.68
2023-04-29T08:16:03.906Z,2.90
2023-04-29T08:18:32.415Z,3.28
2023-04-29T08:21:00.590Z,4.40
2023-04-29T08:23:28.996Z,4.15
2023-04-29T08:25:57.355Z,3.95
2023-04-29T08:28:26.157Z,4.00
2023-04-29T08:30:54.332Z,4.25
2023-04-29T08:33:23.199Z,3.13
2023-04-29T08:36:00.210Z,3.65
2023-04-29T08:38:28.847Z,3.33
2023-04-29T08:40:57.334Z,5.38
2023-04-29T08:43:26.526Z,4.45
2023-04-29T08:45:55.253Z,3.00
2023-04-29T08:48:24.161Z,2.80
2023-04-29T08:50:52.821Z,4.88
2023-04-29T08:53:22.110Z,4.75
2023-04-29T08:55:50.390Z,3.63
2023-04-29T08:58:19.156Z,3.45
2023-04-29T09:00:48.005Z,4.97
2023-04-29T09:03:26.789Z,4.30
2023-04-29T09:05:57.111Z,5.15
2023-04-29T09:08:25.919Z,5.55
2023-04-29T09:10:54.539Z,5.47
2023-04-29T09:13:33.392Z,9.05
2023-04-29T09:16:01.711Z,6.88
2023-04-29T09:18:52.083Z,9.52
2023-04-29T09:21:22.954Z,9.43
2023-04-29T09:23:59.168Z,8.93
2023-04-29T09:26:28.271Z,9.63
2023-04-29T09:29:16.993Z,7.72
2023-04-29T09:31:46.602Z,8.23
2023-04-29T09:34:15.864Z,8.07
2023-04-29T09:36:47.513Z,7.45
2023-04-29T09:39:23.289Z,9.85
2023-04-29T09:41:54.591Z,9.10
2023-04-29T09:44:29.183Z,7.63
2023-04-29T09:47:03.755Z,8.13
2023-04-29T09:49:39.202Z,7.57
2023-04-29T09:52:10.402Z,8.13
2023-04-29T09:54:40.607Z,7.05
2023-04-29T09:57:11.036Z,8.02
2023-04-29T09:59:41.563Z,8.80
2023-04-29T10:02:12.686Z,7.70
2023-04-29T10:04:43.595Z,8.00
2023-04-29T10:07:16.579Z,8.10
2023-04-29T10:09:47.609Z,8.07
2023-04-29T10:12:22.455Z,9.55
2023-04-29T10:15:05.763Z,9.48
2023-04-29T10:17:48.559Z,11.05
2023-04-29T10:20:24.216Z,9.32
2023-04-29T10:22:55.579Z,11.90
2023-04-29T10:25:25.502Z,11.98
2023-04-29T10:27:56.789Z,10.52
2023-04-29T10:30:25.083Z,9.85
2023-04-29T10:32:53.474Z,11.55
2023-04-29T10:35:26.255Z,12.57
2023-04-29T10:37:56.085Z,13.88
2023-04-29T10:40:43.666Z,12.95
2023-04-29T10:43:11.963Z,10.63
2023-04-29T10:45:40.624Z,11.25
2023-04-29T10:48:16.070Z,11.40
2023-04-29T10:50:50.205Z,11.82
2023-04-29T10:53:20.359Z,13.68
2023-04-29T10:55:49.943Z,10.75
2023-04-29T10:58:47.269Z,13.73
2023-04-29T11:01:17.532Z,12.02
2023-04-29T11:04:01.375Z,11.82
2023-04-29T11:06:38.575Z,12.98
2023-04-29T11:09:26.484Z,12.00
2023-04-29T11:12:01.423Z,15.32
2023-04-29T11:14:52.038Z,13.20
2023-04-29T11:17:21.573Z,17.55
2023-04-29T11:19:53.257Z,13.35
2023-04-29T11:22:25.015Z,15.30
2023-04-29T11:25:03.798Z,14.15
2023-04-29T11:27:43.966Z,14.25
2023-04-29T11:30:13.457Z,12.70
2023-04-29T11:32:43.710Z,14.15
2023-04-29T11:35:16.761Z,14.05
2023-04-29T11:37:46.515Z,16.05
2023-04-29T11:40:15.891Z,14.65
2023-04-29T11:42:49.518Z,12.23
2023-04-29T11:45:21.459Z,14.77
2023-04-29T11:47:52.081Z,14.15
2023-04-29T11:50:21.650Z,14.23
2023-04-29T11:52:50.804Z,14.48
2023-04-29T11:55:20.602Z,13.05
2023-04-29T11:57:53.076Z,12.38
2023-04-29T12:00:21.578Z,11.90
2023-04-29T12:02:49.898Z,13.73
2023-04-29T12:05:19.978Z,13.55
2023-04-29T12:07:51.945Z,14.65
2023-04-29T12:10:20.251Z,12.65
2023-04-29T12:12:49.701Z,12.68
2023-04-29T12:15:18.187Z,12.50
2023-04-29T12:17:47.502Z,11.95
2023-04-29T12:20:16.266Z,13.90
2023-04-29T12:22:44.800Z,16.00
2023-04-29T12:25:13.312Z,12.50
2023-04-29T12:27:45.736Z,11.88
2023-04-29T12:30:14.138Z,14.45
2023-04-29T12:32:42.655Z,13.43
2023-04-29T12:35:19.525Z,12.27
2023-04-29T12:37:53.673Z,11.68
2023-04-29T12:40:21.975Z,11.77
2023-04-29T12:42:50.337Z,14.20
2023-04-29T12:45:33.009Z,12.52
2023-04-29T12:48:05.655Z,13.85
2023-04-29T12:50:39.595Z,13.52
2023-04-29T12:53:09.554Z,13.00
2023-04-29T12:55:39.392Z,12.93
2023-04-29T12:58:08.288Z,13.13
2023-04-29T13:00:38.313Z,14.50
2023-04-29T13:03:06.924Z,13.77
2023-04-29T13:05:35.565Z,14.40
2023-04-29T13:08:04.217Z,14.77
2023-04-29T13:10:32.553Z,14.32
2023-04-29T13:13:01.111Z,13.48
2023-04-29T13:15:29.397Z,14.05
2023-04-29T13:17:59.474Z,15.20
2023-04-29T13:20:27.848Z,13.98
2023-04-29T13:22:56.005Z,15.25
2023-04-29T13:25:24.201Z,13.25
2023-04-29T13:27:52.524Z,13.05
2023-04-29T13:30:20.797Z,13.65
2023-04-29T13:32:54.905Z,14.00
2023-04-29T13:35:24.861Z,16.38
2023-04-29T13:37:53.259Z,13.90
2023-04-29T13:40:21.787Z,12.68
2023-04-29T13:42:56.902Z,13.88
2023-04-29T13:45:32.459Z,12.65
2023-04-29T13:48:07.522Z,13.88
2023-04-29T13:58:56.016Z,13.88
2023-04-29T14:03:35.949Z,14.20
2023-04-29T14:06:04.586Z,16.92
2023-04-29T14:08:32.783Z,13.75
2023-04-29T14:11:01.603Z,13.98
2023-04-29T14:13:30.349Z,13.25
2023-04-29T14:16:00.576Z,12.93
2023-04-29T14:18:30.937Z,14.07
2023-04-29T14:21:00.502Z,12.82
2023-04-29T14:23:28.762Z,15.95
2023-04-29T14:26:16.512Z,13.50
2023-04-29T14:28:45.696Z,13.55
2023-04-29T14:31:14.544Z,15.50
2023-04-29T14:33:42.828Z,15.60
2023-04-29T14:36:11.143Z,16.30
2023-04-29T14:38:39.351Z,13.63
2023-04-29T14:41:07.984Z,12.10
2023-04-29T14:43:37.092Z,14.45
2023-04-29T14:46:05.435Z,11.50
2023-04-29T14:48:34.029Z,13.45
2023-04-29T14:51:02.227Z,11.68
2023-04-29T14:53:30.433Z,12.02
2023-04-29T14:55:58.767Z,11.43
2023-04-29T14:58:27.000Z,12.05
2023-04-29T15:00:55.247Z,10.63
2023-04-29T15:03:24.313Z,10.75
2023-04-29T15:05:53.162Z,11.93
2023-04-29T15:08:21.640Z,13.02
2023-04-29T15:10:50.499Z,10.57
2023-04-29T15:13:18.708Z,12.63
2023-04-29T15:15:47.517Z,12.07
2023-04-29T15:18:15.773Z,12.65
2023-04-29T15:20:43.970Z,9.98
2023-04-29T15:23:12.379Z,13.23
2023-04-29T15:25:40.628Z,10.75
2023-04-29T15:28:09.010Z,10.27
2023-04-29T15:30:37.337Z,10.98
2023-04-29T15:33:07.594Z,10.07
2023-04-29T15:35:37.395Z,10.95
2023-04-29T15:38:05.630Z,11.15
2023-04-29T15:40:33.889Z,10.43
2023-04-29T15:43:02.302Z,11.63
2023-04-29T15:45:30.527Z,10.88
2023-04-29T15:47:58.937Z,11.23
2023-04-29T15:50:27.297Z,10.48
2023-04-29T15:52:56.823Z,11.65
2023-04-29T15:55:25.029Z,11.98
2023-04-29T15:57:53.257Z,17.20
2023-04-29T16:00:21.548Z,10.35
2023-04-29T16:02:50.050Z,11.10
2023-04-29T16:05:18.382Z,10.25
2023-04-29T16:07:46.912Z,10.27
2023-04-29T16:10:15.250Z,10.57
2023-04-29T16:12:43.970Z,9.40
2023-04-29T16:15:12.508Z,10.60
2023-04-29T16:17:40.845Z,10.93
2023-04-29T16:20:09.830Z,10.77
2023-04-29T16:22:38.085Z,9.73
2023-04-29T16:25:06.725Z,13.55
2023-04-29T16:27:34.972Z,10.45
2023-04-29T16:30:03.397Z,11.45
2023-04-29T16:32:32.275Z,11.18
2023-04-29T16:35:01.497Z,12.32
2023-04-29T16:37:30.363Z,11.05
2023-04-29T16:39:59.087Z,10.75
2023-04-29T16:42:27.387Z,11.95
2023-04-29T16:44:55.583Z,10.48
2023-04-29T16:47:24.966Z,10.63
2023-04-29T16:49:53.506Z,10.40
2023-04-29T16:52:22.509Z,9.57
2023-04-29T16:54:50.720Z,9.68
2023-04-29T16:57:18.934Z,9.98
2023-04-29T16:59:47.497Z,12.10
2023-04-29T17:02:15.681Z,12.07
2023-04-29T17:04:44.271Z,11.35
2023-04-29T17:07:14.847Z,50.13
2023-04-29T17:09:43.054Z,10.55
2023-04-29T17:12:11.353Z,9.73
2023-04-29T17:14:40.820Z,11.30
2023-04-29T17:17:09.083Z,10.45
2023-04-29T17:19:37.287Z,9.93
2023-04-29T17:22:05.869Z,10.13
2023-04-29T17:24:34.642Z,10.55
2023-04-29T17:27:02.884Z,10.10
2023-04-29T17:29:31.106Z,9.90
2023-04-29T17:32:00.968Z,10.57
2023-04-29T17:34:31.791Z,9.85
2023-04-29T17:36:59.999Z,11.60
2023-04-29T17:39:28.234Z,9.82
2023-04-29T17:41:56.549Z,8.73
2023-04-29T17:44:24.781Z,8.93
2023-04-29T17:46:53.060Z,11.52
2023-04-29T17:49:21.450Z,8.85
2023-04-29T17:51:49.677Z,9.82
2023-04-29T17:54:17.937Z,10.57
2023-04-29T17:56:46.395Z,9.40
2023-04-29T17:59:14.590Z,8.98
2023-04-29T18:01:43.385Z,8.23
2023-04-29T18:04:11.782Z,7.90
2023-04-29T18:06:40.141Z,7.72
2023-04-29T18:09:08.579Z,8.02
2023-04-29T18:11:36.844Z,10.05
2023-04-29T18:14:05.689Z,7.85
2023-04-29T18:16:34.146Z,10.02
2023-04-29T18:19:02.457Z,8.48
2023-04-29T18:21:30.699Z,8.35
2023-04-29T18:23:59.178Z,9.93
2023-04-29T18:26:27.720Z,8.57
2023-04-29T18:28:55.965Z,7.60
2023-04-29T18:31:26.012Z,8.20
2023-04-29T18:33:54.513Z,8.38
2023-04-29T18:36:24.469Z,9.45
2023-04-29T18:38:52.922Z,5.63
2023-04-29T18:41:21.151Z,7.50
2023-04-29T18:43:49.402Z,5.97
2023-04-29T18:46:18.061Z,5.53
2023-04-29T18:48:46.338Z,6.28
2023-04-29T18:51:14.631Z,4.88
2023-04-29T18:53:42.972Z,6.50
2023-04-29T18:56:11.287Z,6.57
2023-04-29T18:58:39.553Z,5.22
2023-04-29T19:01:07.933Z,5.13
2023-04-29T19:03:36.678Z,6.68
2023-04-29T19:06:04.993Z,4.40
2023-04-29T19:08:33.265Z,4.97
2023-04-29T19:11:01.590Z,4.93
2023-04-29T19:13:30.208Z,6.57
2023-04-29T19:15:58.570Z,4.75
2023-04-29T19:18:27.248Z,4.50
2023-04-29T19:20:56.867Z,4.40
2023-04-29T19:23:25.095Z,3.47
2023-04-29T19:25:53.343Z,2.90
2023-04-29T19:28:21.670Z,4.13
2023-04-29T19:30:50.049Z,3.38
2023-04-29T19:33:18.296Z,3.28
2023-04-29T19:35:47.137Z,3.88
2023-04-29T19:38:15.378Z,3.22
2023-04-29T19:40:43.591Z,4.50
2023-04-29T19:43:11.889Z,2.80
2023-04-29T19:45:40.408Z,4.35
2023-04-29T19:48:08.675Z,5.10
2023-04-29T19:50:36.885Z,2.97
2023-04-29T19:53:05.067Z,4.00
2023-04-29T19:55:34.591Z,4.60
2023-04-29T19:58:02.920Z,4.57
2023-04-29T20:00:31.916Z,4.13
2023-04-29T20:03:00.321Z,5.38
2023-04-29T20:05:29.248Z,4.03
2023-04-29T20:07:57.818Z,3.63
2023-04-29T20:10:28.991Z,4.72
2023-04-29T20:12:58.385Z,4.88
2023-04-29T20:15:27.117Z,6.43
2023-04-29T20:17:56.474Z,4.20
2023-04-29T20:20:25.862Z,4.38
2023-04-29T20:22:58.756Z,4.78
2023-04-29T20:25:27.875Z,5.43
2023-04-29T20:27:56.285Z,5.72
2023-04-29T20:30:24.911Z,6.07
2023-04-29T20:32:53.435Z,4.85
2023-04-29T20:35:22.138Z,6.25
2023-04-29T20:37:50.548Z,8.10
2023-04-29T20:40:19.289Z,5.65
2023-04-29T20:42:48.078Z,5.43
2023-04-29T20:45:16.708Z,6.93
2023-04-29T20:47:45.290Z,6.50
2023-04-29T20:50:13.915Z,7.43
2023-04-29T20:52:42.489Z,6.82
2023-04-29T20:55:11.240Z,6.55
2023-04-29T20:57:40.444Z,5.82
2023-04-29T21:00:10.447Z,6.93
2023-04-29T21:02:38.664Z,7.00
2023-04-29T21:05:07.279Z,7.97
2023-04-29T21:07:35.505Z,8.70
2023-04-29T21:10:03.886Z,7.07
2023-04-29T21:12:32.159Z,8.60
2023-04-29T21:15:00.363Z,8.00
2023-04-29T21:17:28.633Z,6.95
2023-04-29T21:19:57.573Z,7.18
2023-04-29T21:22:25.844Z,7.35
2023-04-29T21:24:54.046Z,6.45
2023-04-29T21:27:22.522Z,6.40
2023-04-29T21:29:50.715Z,5.75
2023-04-29T21:32:22.365Z,6.97
2023-04-29T21:34:50.861Z,8.57
2023-04-29T21:37:19.138Z,6.38
2023-04-29T21:39:47.774Z,5.82
2023-04-29T21:42:21.955Z,4.15
2023-04-29T21:47:18.140Z,6.15
2023-04-29T21:49:46.516Z,5.78
2023-04-29T21:52:14.708Z,4.53
2023-04-29T21:54:42.899Z,4.88
2023-04-29T21:57:11.262Z,6.72
2023-04-29T21:59:39.601Z,5.50
2023-04-29T22:02:23.177Z,6.22
2023-04-29T22:04:55.068Z,5.93
2023-04-29T22:07:24.118Z,5.00
2023-04-29T22:09:52.695Z,5.75
2023-04-29T22:12:21.859Z,4.90
2023-04-29T22:14:50.152Z,4.80
2023-04-29T22:17:18.360Z,5.28
2023-04-29T22:19:46.847Z,7.35
2023-04-29T22:22:15.222Z,4.20
2023-04-29T22:24:43.425Z,4.22
2023-04-29T22:27:11.621Z,4.68
2023-04-29T22:29:40.426Z,4.72
2023-04-29T22:32:09.042Z,4.28
2023-04-29T22:34:37.646Z,4.13
2023-04-29T22:37:05.891Z,4.63
2023-04-29T22:39:34.212Z,3.38
2023-04-29T22:42:05.459Z,2.67
2023-04-29T22:44:33.811Z,3.40
2023-04-29T22:47:02.613Z,2.92
2023-04-29T22:49:30.775Z,3.60
2023-04-29T22:51:59.014Z,3.58
2023-04-29T22:54:27.344Z,2.67
2023-04-29T22:56:55.513Z,2.63
2023-04-29T22:59:23.742Z,3.65
2023-04-29T23:01:52.565Z,2.03
2023-04-29T23:04:21.354Z,3.20
2023-04-29T23:06:49.681Z,3.50
2023-04-29T23:09:18.028Z,2.85
2023-04-29T23:11:46.368Z,4.03
2023-04-29T23:14:14.571Z,2.65
2023-04-29T23:16:42.793Z,3.15
2023-04-29T23:19:11.142Z,2.78
2023-04-29T23:21:39.402Z,3.25
2023-04-29T23:24:07.695Z,2.10
2023-04-29T23:26:35.885Z,2.47
2023-04-29T23:29:04.070Z,2.75
2023-04-29T23:31:32.296Z,3.17
2023-04-29T23:34:00.852Z,3.47
2023-04-29T23:36:29.081Z,2.47
2023-04-29T23:38:57.299Z,4.00
2023-04-29T23:41:25.535Z,2.60
2023-04-29T23:43:54.165Z,2.33
2023-04-29T23:46:22.458Z,2.67
2023-04-29T23:48:50.744Z,3.45
2023-04-29T23:51:18.942Z,3.72
2023-04-29T23:53:47.515Z,4.45
2023-04-29T23:56:15.699Z,3.13
2023-04-29T23:58:43.913Z,3.38
